sensor_id;sensor_type;location;lat;lon;timestamp;P1;durP1;ratioP1;P2;durP2;ratioP2
5060;SDS011;2549;52.128;21.068;2023-02-28T00:00:36;3.28;;;2.85;;
5060;SDS011;2549;52.128;21.068;2023-02-28T00:03:03;11.00;;;3.83;;
5060;SDS011;2549;52.128;21.068;2023-02-28T00:05:31;8.52;;;3.80;;
5060;SDS011;2549;52.128;21.068;2023-02-28T00:07:58;5.78;;;3.67;;
5060;SDS011;2549;52.128;21.068;2023-02-28T00:10:26;4.30;;;3.03;;
5060;SDS011;2549;52.128;21.068;2023-02-28T00:12:56;9.27;;;3.42;;
5060;SDS011;2549;52.128;21.068;2023-02-28T00:15:29;6.47;;;3.60;;
5060;SDS011;2549;52.128;21.068;2023-02-28T00:17:56;6.13;;;3.50;;
5060;SDS011;2549;52.128;21.068;2023-02-28T00:20:23;5.43;;;3.83;;
5060;SDS011;2549;52.128;21.068;2023-02-28T00:22:51;4.53;;;3.47;;
5060;SDS011;2549;52.128;21.068;2023-02-28T00:25:23;4.00;;;3.45;;
5060;SDS011;2549;52.128;21.068;2023-02-28T00:27:51;5.85;;;3.45;;
5060;SDS011;2549;52.128;21.068;2023-02-28T00:30:20;9.07;;;3.45;;
5060;SDS011;2549;52.128;21.068;2023-02-28T00:32:48;7.07;;;3.47;;
5060;SDS011;2549;52.128;21.068;2023-02-28T00:35:17;5.97;;;3.47;;
5060;SDS011;2549;52.128;21.068;2023-02-28T00:37:44;9.55;;;3.67;;
5060;SDS011;2549;52.128;21.068;2023-02-28T00:40:11;5.47;;;3.15;;
5060;SDS011;2549;52.128;21.068;2023-02-28T00:42:38;8.23;;;3.92;;
5060;SDS011;2549;52.128;21.068;2023-02-28T00:45:05;6.32;;;3.70;;
5060;SDS011;2549;52.128;21.068;2023-02-28T00:47:34;5.43;;;3.25;;
5060;SDS011;2549;52.128;21.068;2023-02-28T00:50:02;4.85;;;3.65;;
5060;SDS011;2549;52.128;21.068;2023-02-28T00:52:29;8.55;;;3.85;;
5060;SDS011;2549;52.128;21.068;2023-02-28T00:54:56;3.72;;;3.35;;
5060;SDS011;2549;52.128;21.068;2023-02-28T00:57:23;9.68;;;3.30;;
5060;SDS011;2549;52.128;21.068;2023-02-28T00:59:53;5.90;;;3.70;;
5060;SDS011;2549;52.128;21.068;2023-02-28T01:02:21;9.27;;;3.40;;
5060;SDS011;2549;52.128;21.068;2023-02-28T01:04:48;9.38;;;3.72;;
5060;SDS011;2549;52.128;21.068;2023-02-28T01:07:15;5.32;;;3.53;;
5060;SDS011;2549;52.128;21.068;2023-02-28T01:09:42;7.10;;;3.60;;
5060;SDS011;2549;52.128;21.068;2023-02-28T01:12:09;4.95;;;3.33;;
5060;SDS011;2549;52.128;21.068;2023-02-28T01:14:36;3.95;;;3.35;;
5060;SDS011;2549;52.128;21.068;2023-02-28T01:17:03;9.25;;;4.40;;
5060;SDS011;2549;52.128;21.068;2023-02-28T01:19:30;6.50;;;4.15;;
5060;SDS011;2549;52.128;21.068;2023-02-28T01:21:56;5.50;;;4.07;;
5060;SDS011;2549;52.128;21.068;2023-02-28T01:24:26;6.20;;;4.32;;
5060;SDS011;2549;52.128;21.068;2023-02-28T01:26:53;9.30;;;4.97;;
5060;SDS011;2549;52.128;21.068;2023-02-28T01:29:19;6.45;;;3.40;;
5060;SDS011;2549;52.128;21.068;2023-02-28T01:31:46;4.03;;;3.60;;
5060;SDS011;2549;52.128;21.068;2023-02-28T01:34:13;7.25;;;4.15;;
5060;SDS011;2549;52.128;21.068;2023-02-28T01:36:40;5.35;;;3.72;;
5060;SDS011;2549;52.128;21.068;2023-02-28T01:39:07;8.18;;;5.00;;
5060;SDS011;2549;52.128;21.068;2023-02-28T01:41:34;7.60;;;4.10;;
5060;SDS011;2549;52.128;21.068;2023-02-28T01:44:55;7.07;;;3.67;;
5060;SDS011;2549;52.128;21.068;2023-02-28T01:47:10;10.40;;;3.67;;
5060;SDS011;2549;52.128;21.068;2023-02-28T01:49:37;9.73;;;4.35;;
5060;SDS011;2549;52.128;21.068;2023-02-28T01:52:04;6.80;;;3.83;;
5060;SDS011;2549;52.128;21.068;2023-02-28T01:54:31;5.88;;;4.07;;
5060;SDS011;2549;52.128;21.068;2023-02-28T01:57:01;6.90;;;3.90;;
5060;SDS011;2549;52.128;21.068;2023-02-28T01:59:49;7.93;;;4.00;;
5060;SDS011;2549;52.128;21.068;2023-02-28T02:02:20;7.15;;;4.03;;
5060;SDS011;2549;52.128;21.068;2023-02-28T02:04:59;12.00;;;5.65;;
5060;SDS011;2549;52.128;21.068;2023-02-28T02:07:31;11.15;;;4.75;;
5060;SDS011;2549;52.128;21.068;2023-02-28T02:10:03;8.27;;;4.45;;
5060;SDS011;2549;52.128;21.068;2023-02-28T02:12:48;7.72;;;5.03;;
5060;SDS011;2549;52.128;21.068;2023-02-28T02:15:37;7.35;;;4.90;;
5060;SDS011;2549;52.128;21.068;2023-02-28T02:18:33;7.85;;;5.30;;
5060;SDS011;2549;52.128;21.068;2023-02-28T02:24:39;8.63;;;5.07;;
5060;SDS011;2549;52.128;21.068;2023-02-28T02:29:36;9.05;;;5.43;;
5060;SDS011;2549;52.128;21.068;2023-02-28T02:35:34;16.02;;;5.00;;
5060;SDS011;2549;52.128;21.068;2023-02-28T02:38:17;10.02;;;6.05;;
5060;SDS011;2549;52.128;21.068;2023-02-28T02:40:49;8.13;;;5.43;;
5060;SDS011;2549;52.128;21.068;2023-02-28T02:43:56;13.77;;;5.95;;
5060;SDS011;2549;52.128;21.068;2023-02-28T02:46:29;13.60;;;6.43;;
5060;SDS011;2549;52.128;21.068;2023-02-28T02:49:02;10.85;;;6.13;;
5060;SDS011;2549;52.128;21.068;2023-02-28T02:51:32;8.68;;;5.57;;
5060;SDS011;2549;52.128;21.068;2023-02-28T02:54:21;14.32;;;5.75;;
5060;SDS011;2549;52.128;21.068;2023-02-28T02:56:55;10.77;;;6.00;;
5060;SDS011;2549;52.128;21.068;2023-02-28T02:59:25;12.82;;;5.97;;
5060;SDS011;2549;52.128;21.068;2023-02-28T03:01:55;13.55;;;5.75;;
5060;SDS011;2549;52.128;21.068;2023-02-28T03:04:26;14.02;;;7.38;;
5060;SDS011;2549;52.128;21.068;2023-02-28T03:06:58;14.52;;;7.07;;
5060;SDS011;2549;52.128;21.068;2023-02-28T03:09:25;15.13;;;6.43;;
5060;SDS011;2549;52.128;21.068;2023-02-28T03:11:54;12.77;;;6.32;;
5060;SDS011;2549;52.128;21.068;2023-02-28T03:14:25;14.00;;;6.13;;
5060;SDS011;2549;52.128;21.068;2023-02-28T03:20:24;13.48;;;6.35;;
5060;SDS011;2549;52.128;21.068;2023-02-28T03:33:49;14.68;;;7.38;;
5060;SDS011;2549;52.128;21.068;2023-02-28T03:36:28;15.43;;;7.30;;
5060;SDS011;2549;52.128;21.068;2023-02-28T03:38:59;14.43;;;7.93;;
5060;SDS011;2549;52.128;21.068;2023-02-28T03:47:03;15.93;;;8.40;;
5060;SDS011;2549;52.128;21.068;2023-02-28T03:49:36;20.48;;;8.10;;
5060;SDS011;2549;52.128;21.068;2023-02-28T03:52:11;17.50;;;8.73;;
5060;SDS011;2549;52.128;21.068;2023-02-28T03:54:43;19.10;;;7.78;;
5060;SDS011;2549;52.128;21.068;2023-02-28T03:57:20;13.32;;;6.93;;
5060;SDS011;2549;52.128;21.068;2023-02-28T03:59:51;19.90;;;7.13;;
5060;SDS011;2549;52.128;21.068;2023-02-28T04:02:24;15.63;;;6.78;;
5060;SDS011;2549;52.128;21.068;2023-02-28T04:04:51;14.02;;;7.15;;
5060;SDS011;2549;52.128;21.068;2023-02-28T04:07:17;10.88;;;7.20;;
5060;SDS011;2549;52.128;21.068;2023-02-28T04:09:44;17.65;;;8.20;;
5060;SDS011;2549;52.128;21.068;2023-02-28T04:12:11;16.33;;;8.60;;
5060;SDS011;2549;52.128;21.068;2023-02-28T04:14:38;18.50;;;7.60;;
5060;SDS011;2549;52.128;21.068;2023-02-28T04:17:05;23.38;;;9.02;;
5060;SDS011;2549;52.128;21.068;2023-02-28T04:19:32;13.15;;;6.97;;
5060;SDS011;2549;52.128;21.068;2023-02-28T04:21:58;14.57;;;6.97;;
5060;SDS011;2549;52.128;21.068;2023-02-28T04:24:26;13.75;;;7.38;;
5060;SDS011;2549;52.128;21.068;2023-02-28T04:26:54;14.90;;;7.07;;
5060;SDS011;2549;52.128;21.068;2023-02-28T04:29:27;21.33;;;7.10;;
5060;SDS011;2549;52.128;21.068;2023-02-28T04:31:56;11.65;;;6.45;;
5060;SDS011;2549;52.128;21.068;2023-02-28T04:34:25;16.75;;;8.40;;
5060;SDS011;2549;52.128;21.068;2023-02-28T04:36:52;18.80;;;7.35;;
5060;SDS011;2549;52.128;21.068;2023-02-28T04:39:38;17.85;;;6.68;;
5060;SDS011;2549;52.128;21.068;2023-02-28T04:42:05;19.63;;;6.93;;
5060;SDS011;2549;52.128;21.068;2023-02-28T04:44:32;11.68;;;6.75;;
5060;SDS011;2549;52.128;21.068;2023-02-28T04:46:59;18.13;;;7.68;;
5060;SDS011;2549;52.128;21.068;2023-02-28T04:49:26;14.45;;;7.13;;
5060;SDS011;2549;52.128;21.068;2023-02-28T04:51:53;18.02;;;7.00;;
5060;SDS011;2549;52.128;21.068;2023-02-28T04:54:21;12.93;;;6.20;;
5060;SDS011;2549;52.128;21.068;2023-02-28T04:56:48;17.45;;;7.75;;
5060;SDS011;2549;52.128;21.068;2023-02-28T04:59:16;26.25;;;7.50;;
5060;SDS011;2549;52.128;21.068;2023-02-28T05:01:46;11.48;;;6.82;;
5060;SDS011;2549;52.128;21.068;2023-02-28T05:04:14;18.98;;;7.97;;
5060;SDS011;2549;52.128;21.068;2023-02-28T05:06:41;19.20;;;7.25;;
5060;SDS011;2549;52.128;21.068;2023-02-28T05:09:08;16.05;;;6.70;;
5060;SDS011;2549;52.128;21.068;2023-02-28T05:11:38;15.05;;;6.60;;
5060;SDS011;2549;52.128;21.068;2023-02-28T05:14:10;14.80;;;6.50;;
5060;SDS011;2549;52.128;21.068;2023-02-28T05:16:38;14.52;;;7.05;;
5060;SDS011;2549;52.128;21.068;2023-02-28T05:19:05;18.88;;;6.75;;
5060;SDS011;2549;52.128;21.068;2023-02-28T05:21:47;13.55;;;6.03;;
5060;SDS011;2549;52.128;21.068;2023-02-28T05:24:17;9.77;;;5.90;;
5060;SDS011;2549;52.128;21.068;2023-02-28T05:26:54;18.88;;;7.63;;
5060;SDS011;2549;52.128;21.068;2023-02-28T05:29:21;19.95;;;6.28;;
5060;SDS011;2549;52.128;21.068;2023-02-28T05:31:48;9.40;;;5.60;;
5060;SDS011;2549;52.128;21.068;2023-02-28T05:34:15;14.88;;;7.40;;
5060;SDS011;2549;52.128;21.068;2023-02-28T05:36:43;12.50;;;6.30;;
5060;SDS011;2549;52.128;21.068;2023-02-28T05:39:10;15.80;;;6.30;;
5060;SDS011;2549;52.128;21.068;2023-02-28T05:41:40;14.82;;;6.35;;
5060;SDS011;2549;52.128;21.068;2023-02-28T05:44:07;12.65;;;6.13;;
5060;SDS011;2549;52.128;21.068;2023-02-28T05:46:35;25.98;;;6.53;;
5060;SDS011;2549;52.128;21.068;2023-02-28T05:49:02;9.23;;;5.38;;
5060;SDS011;2549;52.128;21.068;2023-02-28T05:51:30;17.17;;;5.32;;
5060;SDS011;2549;52.128;21.068;2023-02-28T05:54:00;9.70;;;5.78;;
5060;SDS011;2549;52.128;21.068;2023-02-28T05:56:28;13.60;;;5.25;;
5060;SDS011;2549;52.128;21.068;2023-02-28T05:58:55;11.93;;;5.90;;
5060;SDS011;2549;52.128;21.068;2023-02-28T06:03:52;14.40;;;6.13;;
5060;SDS011;2549;52.128;21.068;2023-02-28T06:06:19;14.48;;;6.15;;
5060;SDS011;2549;52.128;21.068;2023-02-28T06:08:46;15.32;;;6.85;;
5060;SDS011;2549;52.128;21.068;2023-02-28T06:11:13;14.82;;;6.72;;
5060;SDS011;2549;52.128;21.068;2023-02-28T06:13:46;14.35;;;7.10;;
5060;SDS011;2549;52.128;21.068;2023-02-28T06:16:13;21.85;;;6.70;;
5060;SDS011;2549;52.128;21.068;2023-02-28T06:18:40;15.48;;;7.05;;
5060;SDS011;2549;52.128;21.068;2023-02-28T06:21:07;16.50;;;7.10;;
5060;SDS011;2549;52.128;21.068;2023-02-28T06:23:35;26.98;;;7.53;;
5060;SDS011;2549;52.128;21.068;2023-02-28T06:26:02;12.82;;;5.80;;
5060;SDS011;2549;52.128;21.068;2023-02-28T06:28:29;28.88;;;7.22;;
5060;SDS011;2549;52.128;21.068;2023-02-28T06:30:56;15.18;;;7.00;;
5060;SDS011;2549;52.128;21.068;2023-02-28T06:33:23;11.68;;;7.50;;
5060;SDS011;2549;52.128;21.068;2023-02-28T06:35:51;18.25;;;6.95;;
5060;SDS011;2549;52.128;21.068;2023-02-28T06:38:18;20.50;;;7.55;;
5060;SDS011;2549;52.128;21.068;2023-02-28T06:40:52;19.30;;;6.45;;
5060;SDS011;2549;52.128;21.068;2023-02-28T06:43:20;13.40;;;7.10;;
5060;SDS011;2549;52.128;21.068;2023-02-28T06:45:47;12.18;;;5.55;;
5060;SDS011;2549;52.128;21.068;2023-02-28T06:48:15;12.60;;;6.35;;
5060;SDS011;2549;52.128;21.068;2023-02-28T06:50:42;10.10;;;5.40;;
5060;SDS011;2549;52.128;21.068;2023-02-28T06:53:09;16.58;;;7.38;;
5060;SDS011;2549;52.128;21.068;2023-02-28T06:55:37;12.27;;;6.20;;
5060;SDS011;2549;52.128;21.068;2023-02-28T06:58:05;10.38;;;6.22;;
5060;SDS011;2549;52.128;21.068;2023-02-28T07:00:41;13.10;;;6.10;;
5060;SDS011;2549;52.128;21.068;2023-02-28T07:03:08;17.33;;;5.70;;
5060;SDS011;2549;52.128;21.068;2023-02-28T07:05:36;12.07;;;6.22;;
5060;SDS011;2549;52.128;21.068;2023-02-28T07:08:03;15.45;;;6.47;;
5060;SDS011;2549;52.128;21.068;2023-02-28T07:10:32;11.00;;;5.75;;
5060;SDS011;2549;52.128;21.068;2023-02-28T07:13:00;12.73;;;6.45;;
5060;SDS011;2549;52.128;21.068;2023-02-28T07:15:27;21.35;;;6.78;;
5060;SDS011;2549;52.128;21.068;2023-02-28T07:17:53;12.32;;;7.07;;
5060;SDS011;2549;52.128;21.068;2023-02-28T07:20:20;15.50;;;7.05;;
5060;SDS011;2549;52.128;21.068;2023-02-28T07:22:47;14.07;;;6.35;;
5060;SDS011;2549;52.128;21.068;2023-02-28T07:25:28;17.48;;;6.80;;
5060;SDS011;2549;52.128;21.068;2023-02-28T07:27:55;9.48;;;5.20;;
5060;SDS011;2549;52.128;21.068;2023-02-28T07:30:23;8.38;;;5.15;;
5060;SDS011;2549;52.128;21.068;2023-02-28T07:32:50;14.40;;;5.22;;
5060;SDS011;2549;52.128;21.068;2023-02-28T07:35:16;8.85;;;5.78;;
5060;SDS011;2549;52.128;21.068;2023-02-28T07:37:43;12.43;;;5.68;;
5060;SDS011;2549;52.128;21.068;2023-02-28T07:40:10;12.43;;;5.93;;
5060;SDS011;2549;52.128;21.068;2023-02-28T07:42:38;10.43;;;5.60;;
5060;SDS011;2549;52.128;21.068;2023-02-28T07:45:07;15.35;;;6.00;;
5060;SDS011;2549;52.128;21.068;2023-02-28T07:47:36;10.55;;;5.97;;
5060;SDS011;2549;52.128;21.068;2023-02-28T07:50:04;11.50;;;4.90;;
5060;SDS011;2549;52.128;21.068;2023-02-28T07:52:33;7.22;;;4.25;;
5060;SDS011;2549;52.128;21.068;2023-02-28T07:55:00;13.90;;;4.60;;
5060;SDS011;2549;52.128;21.068;2023-02-28T07:57:27;7.10;;;4.25;;
5060;SDS011;2549;52.128;21.068;2023-02-28T07:59:54;6.90;;;5.45;;
5060;SDS011;2549;52.128;21.068;2023-02-28T08:02:20;6.28;;;4.20;;
5060;SDS011;2549;52.128;21.068;2023-02-28T08:04:47;6.32;;;3.97;;
5060;SDS011;2549;52.128;21.068;2023-02-28T08:07:15;7.93;;;3.90;;
5060;SDS011;2549;52.128;21.068;2023-02-28T08:09:44;7.82;;;4.40;;
5060;SDS011;2549;52.128;21.068;2023-02-28T08:12:11;5.68;;;3.80;;
5060;SDS011;2549;52.128;21.068;2023-02-28T08:14:38;7.22;;;3.78;;
5060;SDS011;2549;52.128;21.068;2023-02-28T08:17:06;7.05;;;4.05;;
5060;SDS011;2549;52.128;21.068;2023-02-28T08:19:33;4.70;;;3.63;;
5060;SDS011;2549;52.128;21.068;2023-02-28T08:21:59;10.13;;;4.50;;
5060;SDS011;2549;52.128;21.068;2023-02-28T08:24:26;5.85;;;3.83;;
5060;SDS011;2549;52.128;21.068;2023-02-28T08:26:53;4.15;;;3.22;;
5060;SDS011;2549;52.128;21.068;2023-02-28T08:29:21;10.35;;;4.60;;
5060;SDS011;2549;52.128;21.068;2023-02-28T08:31:48;11.75;;;4.20;;
5060;SDS011;2549;52.128;21.068;2023-02-28T08:34:15;5.88;;;3.15;;
5060;SDS011;2549;52.128;21.068;2023-02-28T08:36:42;7.35;;;4.05;;
5060;SDS011;2549;52.128;21.068;2023-02-28T08:39:11;6.25;;;3.47;;
5060;SDS011;2549;52.128;21.068;2023-02-28T08:41:39;6.75;;;3.75;;
5060;SDS011;2549;52.128;21.068;2023-02-28T08:44:06;7.90;;;4.70;;
5060;SDS011;2549;52.128;21.068;2023-02-28T08:46:33;8.77;;;4.75;;
5060;SDS011;2549;52.128;21.068;2023-02-28T08:49:00;6.25;;;4.30;;
5060;SDS011;2549;52.128;21.068;2023-02-28T08:51:28;9.23;;;3.67;;
5060;SDS011;2549;52.128;21.068;2023-02-28T08:53:57;4.90;;;3.20;;
5060;SDS011;2549;52.128;21.068;2023-02-28T08:56:27;5.65;;;4.00;;
5060;SDS011;2549;52.128;21.068;2023-02-28T08:58:55;5.15;;;3.78;;
5060;SDS011;2549;52.128;21.068;2023-02-28T09:01:27;5.90;;;3.65;;
5060;SDS011;2549;52.128;21.068;2023-02-28T09:03:56;7.50;;;4.07;;
5060;SDS011;2549;52.128;21.068;2023-02-28T09:06:24;9.70;;;4.43;;
5060;SDS011;2549;52.128;21.068;2023-02-28T09:08:55;7.80;;;3.83;;
5060;SDS011;2549;52.128;21.068;2023-02-28T09:11:24;4.72;;;3.60;;
5060;SDS011;2549;52.128;21.068;2023-02-28T09:13:51;6.00;;;3.65;;
5060;SDS011;2549;52.128;21.068;2023-02-28T09:16:18;5.00;;;3.75;;
5060;SDS011;2549;52.128;21.068;2023-02-28T09:18:45;5.57;;;3.90;;
5060;SDS011;2549;52.128;21.068;2023-02-28T09:21:13;6.68;;;4.72;;
5060;SDS011;2549;52.128;21.068;2023-02-28T09:23:43;5.63;;;4.10;;
5060;SDS011;2549;52.128;21.068;2023-02-28T09:26:15;8.02;;;4.70;;
5060;SDS011;2549;52.128;21.068;2023-02-28T09:28:48;7.20;;;3.97;;
5060;SDS011;2549;52.128;21.068;2023-02-28T09:31:20;5.97;;;3.90;;
5060;SDS011;2549;52.128;21.068;2023-02-28T09:33:49;6.00;;;3.50;;
5060;SDS011;2549;52.128;21.068;2023-02-28T09:36:18;7.93;;;4.05;;
5060;SDS011;2549;52.128;21.068;2023-02-28T09:38:47;6.13;;;4.88;;
5060;SDS011;2549;52.128;21.068;2023-02-28T09:41:17;10.00;;;4.00;;
5060;SDS011;2549;52.128;21.068;2023-02-28T09:43:47;5.57;;;3.72;;
5060;SDS011;2549;52.128;21.068;2023-02-28T09:46:35;3.70;;;3.25;;
5060;SDS011;2549;52.128;21.068;2023-02-28T09:49:14;4.25;;;3.60;;
5060;SDS011;2549;52.128;21.068;2023-02-28T09:51:47;5.97;;;3.75;;
5060;SDS011;2549;52.128;21.068;2023-02-28T09:54:22;6.45;;;3.72;;
5060;SDS011;2549;52.128;21.068;2023-02-28T09:57:36;12.32;;;4.43;;
5060;SDS011;2549;52.128;21.068;2023-02-28T09:59:54;6.45;;;4.15;;
5060;SDS011;2549;52.128;21.068;2023-02-28T10:05:44;3.65;;;3.22;;
5060;SDS011;2549;52.128;21.068;2023-02-28T10:08:18;7.22;;;4.18;;
5060;SDS011;2549;52.128;21.068;2023-02-28T10:10:53;5.60;;;3.92;;
5060;SDS011;2549;52.128;21.068;2023-02-28T10:13:26;6.60;;;3.60;;
5060;SDS011;2549;52.128;21.068;2023-02-28T10:16:18;7.88;;;3.70;;
5060;SDS011;2549;52.128;21.068;2023-02-28T10:18:58;7.88;;;4.00;;
5060;SDS011;2549;52.128;21.068;2023-02-28T10:21:49;3.88;;;3.50;;
5060;SDS011;2549;52.128;21.068;2023-02-28T10:24:29;4.50;;;3.10;;
5060;SDS011;2549;52.128;21.068;2023-02-28T10:27:18;6.40;;;4.28;;
5060;SDS011;2549;52.128;21.068;2023-02-28T10:29:50;5.72;;;3.10;;
5060;SDS011;2549;52.128;21.068;2023-02-28T10:32:25;7.75;;;4.10;;
5060;SDS011;2549;52.128;21.068;2023-02-28T10:35:14;6.80;;;4.63;;
5060;SDS011;2549;52.128;21.068;2023-02-28T10:37:45;5.13;;;4.40;;
5060;SDS011;2549;52.128;21.068;2023-02-28T10:42:59;4.43;;;3.60;;
5060;SDS011;2549;52.128;21.068;2023-02-28T10:45:55;5.53;;;3.47;;
5060;SDS011;2549;52.128;21.068;2023-02-28T10:51:13;4.30;;;3.83;;
5060;SDS011;2549;52.128;21.068;2023-02-28T10:53:49;7.35;;;4.47;;
5060;SDS011;2549;52.128;21.068;2023-02-28T10:56:27;6.75;;;4.38;;
5060;SDS011;2549;52.128;21.068;2023-02-28T11:01:26;6.72;;;4.55;;
5060;SDS011;2549;52.128;21.068;2023-02-28T11:06:59;6.60;;;4.35;;
5060;SDS011;2549;52.128;21.068;2023-02-28T11:09:45;5.30;;;4.47;;
5060;SDS011;2549;52.128;21.068;2023-02-28T11:14:54;10.10;;;4.90;;
5060;SDS011;2549;52.128;21.068;2023-02-28T11:17:28;10.13;;;4.28;;
5060;SDS011;2549;52.128;21.068;2023-02-28T11:20:02;9.48;;;4.50;;
5060;SDS011;2549;52.128;21.068;2023-02-28T11:22:35;6.15;;;4.65;;
5060;SDS011;2549;52.128;21.068;2023-02-28T11:25:07;6.65;;;4.60;;
5060;SDS011;2549;52.128;21.068;2023-02-28T11:27:47;8.52;;;4.78;;
5060;SDS011;2549;52.128;21.068;2023-02-28T11:30:32;6.72;;;4.32;;
5060;SDS011;2549;52.128;21.068;2023-02-28T11:35:53;10.07;;;4.80;;
5060;SDS011;2549;52.128;21.068;2023-02-28T11:38:25;7.18;;;4.38;;
5060;SDS011;2549;52.128;21.068;2023-02-28T11:43:36;6.72;;;4.50;;
5060;SDS011;2549;52.128;21.068;2023-02-28T11:46:34;20.27;;;5.10;;
5060;SDS011;2549;52.128;21.068;2023-02-28T11:49:14;7.45;;;5.53;;
5060;SDS011;2549;52.128;21.068;2023-02-28T11:57:00;6.25;;;4.10;;
5060;SDS011;2549;52.128;21.068;2023-02-28T12:03:10;15.70;;;4.95;;
5060;SDS011;2549;52.128;21.068;2023-02-28T12:06:05;8.90;;;5.38;;
5060;SDS011;2549;52.128;21.068;2023-02-28T12:17:17;8.52;;;5.25;;
5060;SDS011;2549;52.128;21.068;2023-02-28T12:20:02;6.05;;;4.55;;
5060;SDS011;2549;52.128;21.068;2023-02-28T12:28:16;7.90;;;5.20;;
5060;SDS011;2549;52.128;21.068;2023-02-28T12:33:40;12.63;;;4.97;;
5060;SDS011;2549;52.128;21.068;2023-02-28T12:36:13;8.05;;;5.90;;
5060;SDS011;2549;52.128;21.068;2023-02-28T12:38:47;11.50;;;6.05;;
5060;SDS011;2549;52.128;21.068;2023-02-28T12:41:27;8.52;;;5.50;;
5060;SDS011;2549;52.128;21.068;2023-02-28T12:46:54;9.73;;;6.60;;
5060;SDS011;2549;52.128;21.068;2023-02-28T12:52:31;10.35;;;6.45;;
5060;SDS011;2549;52.128;21.068;2023-02-28T12:57:57;9.15;;;5.68;;
5060;SDS011;2549;52.128;21.068;2023-02-28T13:11:29;11.68;;;6.75;;
5060;SDS011;2549;52.128;21.068;2023-02-28T13:14:04;7.85;;;6.07;;
5060;SDS011;2549;52.128;21.068;2023-02-28T13:19:28;10.40;;;5.93;;
5060;SDS011;2549;52.128;21.068;2023-02-28T13:21:58;17.27;;;6.40;;
5060;SDS011;2549;52.128;21.068;2023-02-28T13:29:51;9.82;;;5.82;;
5060;SDS011;2549;52.128;21.068;2023-02-28T13:32:25;10.80;;;7.10;;
5060;SDS011;2549;52.128;21.068;2023-02-28T13:39:57;5.88;;;5.07;;
5060;SDS011;2549;52.128;21.068;2023-02-28T13:42:34;13.13;;;6.97;;
5060;SDS011;2549;52.128;21.068;2023-02-28T13:50:34;9.27;;;6.15;;
5060;SDS011;2549;52.128;21.068;2023-02-28T13:53:17;12.60;;;6.00;;
5060;SDS011;2549;52.128;21.068;2023-02-28T13:56:17;19.40;;;6.32;;
5060;SDS011;2549;52.128;21.068;2023-02-28T13:58:54;11.75;;;5.50;;
5060;SDS011;2549;52.128;21.068;2023-02-28T14:04:21;8.95;;;5.93;;
5060;SDS011;2549;52.128;21.068;2023-02-28T14:07:02;8.32;;;5.90;;
5060;SDS011;2549;52.128;21.068;2023-02-28T14:09:39;14.35;;;5.65;;
5060;SDS011;2549;52.128;21.068;2023-02-28T14:18:03;8.25;;;6.22;;
5060;SDS011;2549;52.128;21.068;2023-02-28T14:20:49;8.52;;;5.50;;
5060;SDS011;2549;52.128;21.068;2023-02-28T14:23:41;8.85;;;5.28;;
5060;SDS011;2549;52.128;21.068;2023-02-28T14:29:02;12.55;;;4.95;;
5060;SDS011;2549;52.128;21.068;2023-02-28T14:31:43;7.25;;;5.22;;
5060;SDS011;2549;52.128;21.068;2023-02-28T14:36:50;18.45;;;6.30;;
5060;SDS011;2549;52.128;21.068;2023-02-28T14:39:20;9.07;;;6.40;;
5060;SDS011;2549;52.128;21.068;2023-02-28T14:41:50;8.98;;;6.05;;
5060;SDS011;2549;52.128;21.068;2023-02-28T14:46:53;10.13;;;6.38;;
5060;SDS011;2549;52.128;21.068;2023-02-28T14:49:31;11.32;;;7.10;;
5060;SDS011;2549;52.128;21.068;2023-02-28T14:54:54;11.95;;;6.60;;
5060;SDS011;2549;52.128;21.068;2023-02-28T14:57:33;8.85;;;4.70;;
5060;SDS011;2549;52.128;21.068;2023-02-28T15:00:16;8.68;;;5.68;;
5060;SDS011;2549;52.128;21.068;2023-02-28T15:02:54;11.02;;;5.82;;
5060;SDS011;2549;52.128;21.068;2023-02-28T15:05:29;8.48;;;5.40;;
5060;SDS011;2549;52.128;21.068;2023-02-28T15:08:16;11.30;;;6.00;;
5060;SDS011;2549;52.128;21.068;2023-02-28T15:10:44;11.68;;;5.80;;
5060;SDS011;2549;52.128;21.068;2023-02-28T15:13:25;14.13;;;6.70;;
5060;SDS011;2549;52.128;21.068;2023-02-28T15:16:15;9.90;;;5.75;;
5060;SDS011;2549;52.128;21.068;2023-02-28T15:21:25;8.68;;;5.82;;
5060;SDS011;2549;52.128;21.068;2023-02-28T15:24:03;7.82;;;5.28;;
5060;SDS011;2549;52.128;21.068;2023-02-28T15:26:41;9.90;;;5.53;;
5060;SDS011;2549;52.128;21.068;2023-02-28T15:29:15;5.40;;;4.88;;
5060;SDS011;2549;52.128;21.068;2023-02-28T15:31:51;8.05;;;5.20;;
5060;SDS011;2549;52.128;21.068;2023-02-28T15:34:43;7.25;;;5.10;;
5060;SDS011;2549;52.128;21.068;2023-02-28T15:39:58;12.15;;;5.68;;
5060;SDS011;2549;52.128;21.068;2023-02-28T15:42:42;11.70;;;6.22;;
5060;SDS011;2549;52.128;21.068;2023-02-28T15:45:27;11.10;;;5.90;;
5060;SDS011;2549;52.128;21.068;2023-02-28T15:48:17;8.65;;;5.20;;
5060;SDS011;2549;52.128;21.068;2023-02-28T15:50:52;10.73;;;5.43;;
5060;SDS011;2549;52.128;21.068;2023-02-28T15:53:24;8.88;;;5.20;;
5060;SDS011;2549;52.128;21.068;2023-02-28T15:55:57;10.27;;;6.22;;
5060;SDS011;2549;52.128;21.068;2023-02-28T15:58:26;14.93;;;5.90;;
5060;SDS011;2549;52.128;21.068;2023-02-28T16:01:03;7.10;;;5.30;;
5060;SDS011;2549;52.128;21.068;2023-02-28T16:03:44;7.75;;;5.13;;
5060;SDS011;2549;52.128;21.068;2023-02-28T16:08:49;8.73;;;5.20;;
5060;SDS011;2549;52.128;21.068;2023-02-28T16:11:17;8.82;;;5.82;;
5060;SDS011;2549;52.128;21.068;2023-02-28T16:13:46;12.13;;;5.45;;
5060;SDS011;2549;52.128;21.068;2023-02-28T16:16:20;7.57;;;5.30;;
5060;SDS011;2549;52.128;21.068;2023-02-28T16:18:50;9.52;;;4.70;;
5060;SDS011;2549;52.128;21.068;2023-02-28T16:21:18;8.48;;;5.50;;
5060;SDS011;2549;52.128;21.068;2023-02-28T16:23:45;6.70;;;4.70;;
5060;SDS011;2549;52.128;21.068;2023-02-28T16:26:16;9.57;;;5.03;;
5060;SDS011;2549;52.128;21.068;2023-02-28T16:28:47;14.02;;;6.10;;
5060;SDS011;2549;52.128;21.068;2023-02-28T16:31:14;9.90;;;5.05;;
5060;SDS011;2549;52.128;21.068;2023-02-28T16:33:43;9.20;;;5.50;;
5060;SDS011;2549;52.128;21.068;2023-02-28T16:36:18;14.82;;;5.97;;
5060;SDS011;2549;52.128;21.068;2023-02-28T16:38:47;13.93;;;5.75;;
5060;SDS011;2549;52.128;21.068;2023-02-28T16:41:16;8.85;;;5.68;;
5060;SDS011;2549;52.128;21.068;2023-02-28T16:43:48;10.48;;;5.13;;
5060;SDS011;2549;52.128;21.068;2023-02-28T16:46:17;9.20;;;5.13;;
5060;SDS011;2549;52.128;21.068;2023-02-28T16:48:46;10.00;;;5.82;;
5060;SDS011;2549;52.128;21.068;2023-02-28T16:51:17;14.65;;;5.22;;
5060;SDS011;2549;52.128;21.068;2023-02-28T16:53:45;9.45;;;5.32;;
5060;SDS011;2549;52.128;21.068;2023-02-28T16:56:19;6.93;;;5.07;;
5060;SDS011;2549;52.128;21.068;2023-02-28T16:58:48;9.75;;;5.03;;
5060;SDS011;2549;52.128;21.068;2023-02-28T17:01:16;14.15;;;6.32;;
5060;SDS011;2549;52.128;21.068;2023-02-28T17:03:48;9.82;;;5.75;;
5060;SDS011;2549;52.128;21.068;2023-02-28T17:06:20;11.77;;;6.70;;
5060;SDS011;2549;52.128;21.068;2023-02-28T17:08:50;11.35;;;6.68;;
5060;SDS011;2549;52.128;21.068;2023-02-28T17:11:17;10.50;;;6.60;;
5060;SDS011;2549;52.128;21.068;2023-02-28T17:13:45;9.43;;;6.03;;
5060;SDS011;2549;52.128;21.068;2023-02-28T17:16:22;13.55;;;6.82;;
5060;SDS011;2549;52.128;21.068;2023-02-28T17:19:01;16.60;;;6.13;;
5060;SDS011;2549;52.128;21.068;2023-02-28T17:21:31;9.65;;;5.88;;
5060;SDS011;2549;52.128;21.068;2023-02-28T17:23:59;14.35;;;5.97;;
5060;SDS011;2549;52.128;21.068;2023-02-28T17:26:26;12.07;;;6.32;;
5060;SDS011;2549;52.128;21.068;2023-02-28T17:28:55;14.85;;;5.70;;
5060;SDS011;2549;52.128;21.068;2023-02-28T17:31:23;13.32;;;6.75;;
5060;SDS011;2549;52.128;21.068;2023-02-28T17:33:52;14.52;;;6.97;;
5060;SDS011;2549;52.128;21.068;2023-02-28T17:36:26;17.15;;;7.45;;
5060;SDS011;2549;52.128;21.068;2023-02-28T17:38:54;11.98;;;7.22;;
5060;SDS011;2549;52.128;21.068;2023-02-28T17:41:22;11.93;;;6.78;;
5060;SDS011;2549;52.128;21.068;2023-02-28T17:43:49;13.50;;;6.95;;
5060;SDS011;2549;52.128;21.068;2023-02-28T17:46:17;22.17;;;7.90;;
5060;SDS011;2549;52.128;21.068;2023-02-28T17:48:49;19.10;;;7.95;;